Time;durP1;ratioP1;P1;durP2;ratioP2;P2;SDS_P1;SDS_P2;PMS_P1;PMS_P2;Temp;Humidity;BMP_temperature;BMP_pressure;BME280_temperature;BME280_humidity;BME280_pressure;Samples;Min_cycle;Max_cycle;Signal;HPM_P1;HPM_P2
2023/08/26 00:01:52;;;;;;;2.83;2.60;;;;;;;;;;5072912;28;20200;-73
2023/08/26 00:04:19;;;;;;;1.57;1.13;;;19.50;99.90;;;;;;5072647;28;20181;-73
2023/08/26 00:06:44;;;;;;;2.70;1.90;;;19.50;99.90;;;;;;5073916;28;20396;-72
2023/08/26 00:09:10;;;;;;;2.00;1.57;;;19.60;99.90;;;;;;5073835;28;20542;-72
2023/08/26 00:11:36;;;;;;;1.23;1.17;;;19.60;99.90;;;;;;5073798;28;20186;-71
2023/08/26 00:14:03;;;;;;;1.17;1.17;;;;;;;;;;5073843;28;20227;-71
2023/08/26 00:16:29;;;;;;;4.67;3.90;;;;;;;;;;5073561;28;20173;-71
2023/08/26 00:18:59;;;;;;;1.43;1.27;;;19.50;99.90;;;;;;5073503;28;20472;-72
2023/08/26 00:21:25;;;;;;;2.03;1.83;;;;;;;;;;5073500;28;20829;-71
2023/08/26 00:23:50;;;;;;;1.50;1.37;;;19.40;99.90;;;;;;5073525;28;20395;-73
2023/08/26 00:26:16;;;;;;;2.20;1.27;;;;;;;;;;5073234;28;20464;-73
2023/08/26 00:28:43;;;;;;;2.77;2.57;;;19.50;99.90;;;;;;5073668;28;20174;-73
2023/08/26 00:31:09;;;;;;;2.57;2.43;;;;;;;;;;5073356;28;20811;-72
2023/08/26 00:33:35;;;;;;;0.70;0.70;;;;;;;;;;5073455;28;20479;-72
2023/08/26 00:36:00;;;;;;;1.63;1.47;;;19.40;99.90;;;;;;5073323;28;20494;-73
2023/08/26 00:38:28;;;;;;;2.33;2.20;;;19.50;99.90;;;;;;5073272;28;20747;-73
2023/08/26 00:40:54;;;;;;;1.90;1.80;;;19.80;99.90;;;;;;5073422;28;20418;-71
2023/08/26 00:43:19;;;;;;;1.33;1.23;;;19.70;99.90;;;;;;5073288;28;20418;-71
2023/08/26 00:45:48;;;;;;;3.10;1.80;;;19.50;99.90;;;;;;5073099;28;20447;-73
2023/08/26 00:48:15;;;;;;;2.10;1.43;;;19.70;99.90;;;;;;5073296;28;20635;-71
2023/08/26 00:50:44;;;;;;;3.63;1.63;;;19.80;99.90;;;;;;5073239;28;20438;-71
2023/08/26 00:53:13;;;;;;;1.30;1.20;;;19.40;99.90;;;;;;5073097;28;20423;-73
2023/08/26 00:55:42;;;;;;;3.63;2.83;;;19.90;99.90;;;;;;5072944;28;20887;-72
2023/08/26 00:58:10;;;;;;;2.23;2.13;;;20.00;99.90;;;;;;5073146;28;20493;-72
2023/08/26 01:00:36;;;;;;;1.77;1.67;;;19.90;99.90;;;;;;5073095;28;20420;-73
2023/08/26 01:03:05;;;;;;;2.60;2.40;;;20.00;99.90;;;;;;5075879;28;20431;-73
2023/08/26 01:05:31;;;;;;;1.57;1.47;;;19.90;99.90;;;;;;5077121;28;20512;-73
2023/08/26 01:07:59;;;;;;;2.00;1.90;;;20.00;99.90;;;;;;5077170;28;20400;-72
2023/08/26 01:10:57;;;;;;;1.67;1.57;;;20.00;99.90;;;;;;5077104;28;20175;-73
2023/08/26 01:13:29;;;;;;;1.70;1.60;;;19.90;99.90;;;;;;5077000;28;20449;-72
2023/08/26 01:15:57;;;;;;;2.93;2.10;;;19.80;99.90;;;;;;5076747;28;20439;-71
2023/08/26 01:18:24;;;;;;;1.50;1.40;;;19.80;99.90;;;;;;5076866;28;20404;-73
2023/08/26 01:20:50;;;;;;;1.77;1.47;;;;;;;;;;5076813;28;20933;-73
2023/08/26 01:23:44;;;;;;;1.63;1.17;;;19.70;99.90;;;;;;5076855;28;20491;-71
2023/08/26 01:26:09;;;;;;;1.57;1.50;;;19.80;99.90;;;;;;5076682;28;20581;-71
2023/08/26 01:28:35;;;;;;;1.83;1.57;;;;;;;;;;5076805;28;20425;-72
2023/08/26 01:31:12;;;;;;;1.83;1.73;;;19.70;99.90;;;;;;5075275;28;20173;-71
2023/08/26 01:33:54;;;;;;;3.23;3.07;;;20.00;99.90;;;;;;5076736;28;20407;-72
2023/08/26 01:36:23;;;;;;;1.33;0.97;;;19.80;99.90;;;;;;5076860;28;20412;-71
2023/08/26 01:38:50;;;;;;;1.80;1.27;;;20.00;99.90;;;;;;5076677;28;20449;-71
2023/08/26 01:41:19;;;;;;;1.63;1.53;;;19.60;99.90;;;;;;5076576;28;20431;-71
2023/08/26 01:43:46;;;;;;;1.50;1.43;;;19.70;99.90;;;;;;5076619;28;20404;-71
2023/08/26 01:46:12;;;;;;;5.30;4.80;;;;;;;;;;5076107;28;20414;-71
2023/08/26 01:48:38;;;;;;;4.80;1.97;;;19.70;99.90;;;;;;5076237;28;20436;-73
2023/08/26 01:51:04;;;;;;;2.60;2.40;;;19.50;99.90;;;;;;5076432;28;20883;-72
2023/08/26 01:53:29;;;;;;;1.77;1.67;;;19.70;99.90;;;;;;5076177;28;20214;-71
2023/08/26 01:55:55;;;;;;;2.77;2.50;;;19.70;99.90;;;;;;5075996;28;20177;-73
2023/08/26 01:58:21;;;;;;;1.80;1.70;;;19.40;99.90;;;;;;5076141;28;20195;-71
2023/08/26 02:00:46;;;;;;;1.00;1.00;;;19.60;99.90;;;;;;5076117;28;20706;-71
2023/08/26 02:03:12;;;;;;;1.53;1.43;;;19.20;99.90;;;;;;5075940;28;20651;-73
2023/08/26 02:05:37;;;;;;;2.10;1.90;;;19.40;99.90;;;;;;5075772;28;20216;-72
2023/08/26 02:08:03;;;;;;;2.10;1.87;;;19.40;99.90;;;;;;5076030;28;20540;-71
2023/08/26 02:10:29;;;;;;;3.87;2.00;;;19.60;99.90;;;;;;5076353;28;20170;-73
2023/08/26 02:12:55;;;;;;;1.43;1.40;;;19.40;99.90;;;;;;5075364;28;20430;-73
2023/08/26 02:15:20;;;;;;;1.53;1.43;;;19.30;99.90;;;;;;5075689;28;20256;-73
2023/08/26 02:17:46;;;;;;;2.10;2.00;;;19.30;99.90;;;;;;5075937;28;20169;-71
2023/08/26 02:20:12;;;;;;;6.23;2.07;;;;;;;;;;5076000;28;20507;-71
2023/08/26 02:22:38;;;;;;;1.93;1.77;;;;;;;;;;5075723;28;20221;-72
2023/08/26 02:25:04;;;;;;;1.10;1.00;;;19.20;99.90;;;;;;5075383;28;20488;-71
2023/08/26 02:27:30;;;;;;;2.07;1.50;;;19.20;99.90;;;;;;5076018;28;20442;-73
2023/08/26 02:29:56;;;;;;;2.40;1.90;;;;;;;;;;5075654;28;20399;-71
2023/08/26 02:32:21;;;;;;;2.97;2.70;;;19.10;99.90;;;;;;5075574;28;20181;-73
2023/08/26 02:34:47;;;;;;;5.67;1.63;;;19.30;99.90;;;;;;5075289;28;20414;-73
2023/08/26 02:37:12;;;;;;;1.70;1.60;;;19.30;99.90;;;;;;5075513;28;20218;-72
2023/08/26 02:39:39;;;;;;;2.17;1.93;;;19.20;99.90;;;;;;5075629;28;20523;-73
2023/08/26 02:42:05;;;;;;;3.50;2.17;;;19.20;99.90;;;;;;5075483;28;20192;-71
2023/08/26 02:44:31;;;;;;;1.73;1.53;;;19.20;99.90;;;;;;5075077;28;20454;-71
2023/08/26 02:46:56;;;;;;;2.57;1.70;;;19.20;99.90;;;;;;5075233;28;20400;-73
2023/08/26 02:49:22;;;;;;;2.40;2.13;;;19.10;99.90;;;;;;5075140;28;20568;-71
2023/08/26 02:51:48;;;;;;;2.20;1.83;;;;;;;;;;5075143;28;20615;-72
2023/08/26 02:54:14;;;;;;;1.67;1.57;;;19.10;99.90;;;;;;5074924;28;20701;-72
2023/08/26 02:56:39;;;;;;;2.57;2.37;;;19.20;99.90;;;;;;5075130;28;20489;-71
2023/08/26 02:59:05;;;;;;;3.27;2.20;;;18.90;99.90;;;;;;5075085;28;20612;-71
2023/08/26 03:01:31;;;;;;;2.83;2.70;;;;;;;;;;5075034;28;20191;-73
2023/08/26 03:03:57;;;;;;;1.40;1.30;;;19.10;99.90;;;;;;5074859;28;20241;-73
2023/08/26 03:06:23;;;;;;;10.27;2.00;;;19.00;99.90;;;;;;5074422;28;20486;-70
2023/08/26 03:08:48;;;;;;;1.50;1.40;;;18.90;99.90;;;;;;5073439;28;21010;-72
2023/08/26 03:11:14;;;;;;;2.10;1.67;;;18.90;99.90;;;;;;5074423;28;20767;-73
2023/08/26 03:13:40;;;;;;;2.70;2.50;;;18.90;99.90;;;;;;5074894;28;20256;-71
2023/08/26 03:16:07;;;;;;;2.27;1.80;;;18.70;99.90;;;;;;5074712;28;20183;-72
2023/08/26 03:18:33;;;;;;;5.83;2.90;;;18.70;99.90;;;;;;5074763;28;20222;-71
2023/08/26 03:21:06;;;;;;;2.37;2.17;;;18.80;99.90;;;;;;5074464;28;20509;-73
2023/08/26 03:23:32;;;;;;;21.97;3.60;;;18.80;99.90;;;;;;5074536;28;20213;-73
2023/08/26 03:25:57;;;;;;;3.37;1.70;;;18.80;99.90;;;;;;5073501;28;20479;-73
2023/08/26 03:28:23;;;;;;;1.47;1.40;;;18.80;99.90;;;;;;5074633;28;20463;-71
2023/08/26 03:30:49;;;;;;;7.90;3.10;;;18.40;99.90;;;;;;5074370;28;20197;-72
2023/08/26 03:33:15;;;;;;;1.90;1.13;;;18.60;99.90;;;;;;5074757;28;20648;-73
2023/08/26 03:35:40;;;;;;;2.53;2.33;;;18.70;99.90;;;;;;5074280;28;20243;-71
2023/08/26 03:38:06;;;;;;;25.77;2.77;;;18.60;99.90;;;;;;5074295;28;20657;-72
2023/08/26 03:40:32;;;;;;;2.80;2.10;;;18.60;99.90;;;;;;5074315;28;20206;-71
2023/08/26 03:43:00;;;;;;;1.73;1.60;;;18.60;99.90;;;;;;5074068;28;20443;-73
2023/08/26 03:45:26;;;;;;;1.20;1.20;;;18.40;99.90;;;;;;5073765;28;20195;-71
2023/08/26 03:47:52;;;;;;;1.60;1.50;;;18.40;99.90;;;;;;5074199;28;20442;-71
2023/08/26 03:50:17;;;;;;;1.87;1.20;;;18.30;99.90;;;;;;5074095;28;20454;-72
2023/08/26 03:52:43;;;;;;;1.80;1.60;;;18.20;99.90;;;;;;5073905;28;20721;-71
2023/08/26 03:55:09;;;;;;;3.10;2.57;;;18.20;99.90;;;;;;5073768;28;20176;-73
2023/08/26 03:57:34;;;;;;;2.47;2.27;;;18.20;99.90;;;;;;5074120;28;20172;-72
2023/08/26 04:00:00;;;;;;;1.80;1.70;;;;;;;;;;5073894;28;20170;-71
2023/08/26 04:02:26;;;;;;;2.63;2.50;;;18.20;99.90;;;;;;5073753;28;20295;-71
2023/08/26 04:04:52;;;;;;;1.17;1.07;;;18.00;99.90;;;;;;5073562;28;20453;-72
2023/08/26 04:07:17;;;;;;;2.50;2.23;;;18.60;99.90;;;;;;5073840;28;20201;-72
2023/08/26 04:09:43;;;;;;;3.03;2.30;;;;;;;;;;5073789;28;20254;-71
2023/08/26 04:12:09;;;;;;;4.07;1.83;;;18.10;99.90;;;;;;5073733;28;20241;-72
2023/08/26 04:14:34;;;;;;;3.13;2.83;;;18.20;99.90;;;;;;5073464;28;20411;-71
2023/08/26 04:17:03;;;;;;;3.60;1.43;;;18.20;99.90;;;;;;5074051;28;20192;-73
2023/08/26 04:19:30;;;;;;;2.40;2.30;;;18.10;99.90;;;;;;5073644;28;20233;-72
2023/08/26 04:21:59;;;;;;;1.93;1.83;;;18.10;99.90;;;;;;5073544;28;20486;-73
2023/08/26 04:24:24;;;;;;;1.63;1.53;;;18.20;99.90;;;;;;5073351;28;20492;-73
2023/08/26 04:26:50;;;;;;;1.57;1.47;;;18.30;99.90;;;;;;5073418;28;20404;-71
2023/08/26 04:29:16;;;;;;;0.77;0.77;;;18.40;99.90;;;;;;5073579;28;20649;-72
2023/08/26 04:31:41;;;;;;;1.63;1.50;;;18.10;99.90;;;;;;5073390;28;20200;-72
2023/08/26 04:34:07;;;;;;;10.93;3.07;;;18.10;99.90;;;;;;5073318;28;20182;-73
2023/08/26 04:36:32;;;;;;;3.33;3.00;;;18.10;99.90;;;;;;5073106;28;20178;-71
2023/08/26 04:38:58;;;;;;;1.20;1.20;;;;;;;;;;5073553;28;20538;-71
2023/08/26 04:41:24;;;;;;;1.70;1.60;;;18.30;99.90;;;;;;5073228;28;20190;-71
2023/08/26 04:43:53;;;;;;;6.60;4.13;;;18.30;99.90;;;;;;5072572;28;20475;-73
2023/08/26 04:46:19;;;;;;;3.47;1.50;;;18.10;99.90;;;;;;5073030;28;20172;-72
2023/08/26 04:48:45;;;;;;;1.80;0.83;;;17.90;99.90;;;;;;5072193;28;20392;-73
2023/08/26 04:51:12;;;;;;;1.93;1.83;;;18.20;99.90;;;;;;5073312;28;20420;-68
2023/08/26 04:53:37;;;;;;;1.83;1.73;;;18.20;99.90;;;;;;5073873;28;20172;-70
2023/08/26 04:56:03;;;;;;;1.83;1.73;;;18.50;99.90;;;;;;5072935;28;20958;-71
2023/08/26 04:58:30;;;;;;;2.30;2.10;;;18.80;99.90;;;;;;5073380;28;20165;-67
2023/08/26 05:00:56;;;;;;;1.97;1.80;;;18.90;99.90;;;;;;5073507;28;20261;-68
2023/08/26 05:03:22;;;;;;;2.83;1.40;;;18.90;99.90;;;;;;5073366;28;20964;-67
2023/08/26 05:05:47;;;;;;;1.73;1.60;;;19.10;99.90;;;;;;5073514;28;20680;-67
2023/08/26 05:08:13;;;;;;;5.53;2.60;;;19.10;99.90;;;;;;5073921;28;20163;-69
2023/08/26 05:10:39;;;;;;;2.80;1.10;;;19.30;99.90;;;;;;5073878;28;20173;-67
2023/08/26 05:13:05;;;;;;;1.90;1.80;;;19.40;99.90;;;;;;5073104;28;20222;-69
2023/08/26 05:15:32;;;;;;;4.13;1.70;;;19.50;99.90;;;;;;5073202;28;20404;-70
2023/08/26 05:17:58;;;;;;;3.10;2.90;;;19.50;99.90;;;;;;5073451;28;20170;-68
2023/08/26 05:20:23;;;;;;;2.30;1.33;;;19.50;99.90;;;;;;5073488;28;20396;-72
2023/08/26 05:22:49;;;;;;;2.30;2.17;;;;;;;;;;5073414;28;20243;-76
2023/08/26 05:25:15;;;;;;;2.00;1.80;;;19.40;99.90;;;;;;5072786;28;20224;-74
2023/08/26 05:27:41;;;;;;;1.33;1.23;;;19.30;99.90;;;;;;5073115;28;20498;-73
2023/08/26 05:30:07;;;;;;;2.40;1.53;;;19.20;99.90;;;;;;5073128;28;20197;-74
2023/08/26 05:32:33;;;;;;;2.03;1.90;;;19.20;99.90;;;;;;5073158;28;20186;-73
2023/08/26 05:34:58;;;;;;;3.30;1.33;;;19.20;99.90;;;;;;5072618;28;20415;-75
2023/08/26 05:37:24;;;;;;;2.13;1.93;;;19.20;99.90;;;;;;5072930;28;20179;-75
2023/08/26 05:39:50;;;;;;;1.00;1.00;;;19.00;99.90;;;;;;5073351;28;20182;-75
2023/08/26 05:42:16;;;;;;;0.90;0.90;;;;;;;;;;5072941;28;20597;-74
2023/08/26 05:44:41;;;;;;;3.17;2.20;;;18.90;99.90;;;;;;5072079;28;20193;-72
2023/08/26 05:47:07;;;;;;;2.70;1.20;;;;;;;;;;5072910;28;20747;-75
2023/08/26 05:49:33;;;;;;;2.07;1.80;;;18.90;99.90;;;;;;5075685;28;20196;-69
2023/08/26 05:51:59;;;;;;;1.30;1.20;;;18.90;99.90;;;;;;5075837;28;20424;-73
2023/08/26 05:54:24;;;;;;;1.53;1.43;;;18.80;99.90;;;;;;5075756;28;20218;-71
2023/08/26 05:56:50;;;;;;;2.47;2.30;;;18.90;99.90;;;;;;5075709;28;20218;-71
2023/08/26 05:59:16;;;;;;;1.80;1.70;;;18.90;99.90;;;;;;5076134;28;20173;-72
2023/08/26 06:01:42;;;;;;;1.50;1.20;;;18.90;99.90;;;;;;5075711;28;20193;-74
2023/08/26 06:04:08;;;;;;;1.43;1.33;;;18.90;99.90;;;;;;5076133;28;20176;-74
2023/08/26 06:06:34;;;;;;;0.77;0.77;;;18.80;99.90;;;;;;5076111;28;20835;-73
2023/08/26 06:09:00;;;;;;;2.10;1.37;;;18.90;99.90;;;;;;5076628;28;20178;-70
2023/08/26 06:11:26;;;;;;;1.67;1.57;;;18.90;99.90;;;;;;5075978;28;20220;-74
2023/08/26 06:13:52;;;;;;;3.07;1.77;;;18.80;99.90;;;;;;5076271;28;20196;-74
2023/08/26 06:16:20;;;;;;;0.90;0.87;;;18.80;99.90;;;;;;5075975;28;20808;-72
2023/08/26 06:18:46;;;;;;;1.60;1.50;;;19.20;99.90;;;;;;5075992;28;20193;-73
2023/08/26 06:21:12;;;;;;;1.80;1.70;;;19.70;99.90;;;;;;5076047;28;20511;-74
2023/08/26 06:23:37;;;;;;;13.13;2.40;;;20.20;99.90;;;;;;5076312;28;20495;-72
2023/08/26 06:26:03;;;;;;;2.00;1.70;;;20.50;99.90;;;;;;5075582;28;20247;-73
2023/08/26 06:28:30;;;;;;;1.53;1.43;;;20.70;99.90;;;;;;5075699;28;20262;-72
2023/08/26 06:31:00;;;;;;;3.40;1.20;;;20.50;99.90;;;;;;5074222;28;20562;-71
2023/08/26 06:33:26;;;;;;;2.70;2.50;;;20.50;99.90;;;;;;5075963;28;20795;-73
2023/08/26 06:35:52;;;;;;;2.07;1.97;;;20.20;99.90;;;;;;5075856;28;20727;-73
2023/08/26 06:38:18;;;;;;;1.60;1.50;;;20.10;99.90;;;;;;5074829;28;20880;-73
2023/08/26 06:40:44;;;;;;;1.87;1.77;;;;;;;;;;5075504;28;20452;-72
2023/08/26 06:43:10;;;;;;;1.63;1.10;;;20.00;99.90;;;;;;5075640;28;20436;-71
2023/08/26 06:45:35;;;;;;;2.73;1.63;;;19.80;99.90;;;;;;5075427;28;20476;-73
2023/08/26 06:48:01;;;;;;;1.67;1.47;;;19.70;99.90;;;;;;5075429;28;20177;-72
2023/08/26 06:50:27;;;;;;;3.70;1.13;;;;;;;;;;5075220;28;20269;-71
2023/08/26 06:52:52;;;;;;;3.50;3.20;;;19.50;99.90;;;;;;5075536;28;20250;-71
2023/08/26 06:55:18;;;;;;;1.67;1.57;;;19.40;99.90;;;;;;5075044;28;20486;-73
2023/08/26 06:57:47;;;;;;;5.77;2.87;;;19.40;99.90;;;;;;5075322;28;20188;-73
2023/08/26 07:00:13;;;;;;;1.40;1.30;;;19.40;99.90;;;;;;5075445;28;20284;-72
2023/08/26 07:02:39;;;;;;;1.53;1.13;;;19.30;99.90;;;;;;5075245;28;20518;-73
2023/08/26 07:05:05;;;;;;;1.70;1.47;;;;;;;;;;5074800;28;20503;-71
2023/08/26 07:07:31;;;;;;;1.50;1.40;;;19.20;99.90;;;;;;5074985;28;20248;-74
2023/08/26 07:09:56;;;;;;;1.37;1.27;;;19.20;99.90;;;;;;5075037;28;20440;-75
2023/08/26 07:12:22;;;;;;;1.67;1.57;;;19.20;99.90;;;;;;5074974;28;20270;-73
2023/08/26 07:14:48;;;;;;;5.10;2.40;;;19.10;99.90;;;;;;5074706;28;20239;-74
2023/08/26 07:17:15;;;;;;;1.37;1.03;;;19.10;99.90;;;;;;5075212;28;20170;-74
2023/08/26 07:19:41;;;;;;;4.03;1.37;;;19.20;99.90;;;;;;5074595;28;20621;-73
2023/08/26 07:22:07;;;;;;;2.43;2.10;;;;;;;;;;5074568;28;20544;-72
2023/08/26 07:24:33;;;;;;;2.10;2.00;;;19.40;99.90;;;;;;5074558;28;20201;-74
2023/08/26 07:26:59;;;;;;;4.80;3.60;;;;;;;;;;5074837;28;20426;-73
2023/08/26 07:29:24;;;;;;;1.80;1.70;;;19.50;99.90;;;;;;5074710;28;20206;-73
2023/08/26 07:31:50;;;;;;;3.37;1.50;;;19.60;99.90;;;;;;5074470;28;20510;-73
2023/08/26 07:34:16;;;;;;;2.50;1.80;;;19.60;99.90;;;;;;5074484;28;20170;-72
2023/08/26 07:36:41;;;;;;;2.47;2.27;;;19.60;99.90;;;;;;5074661;28;20178;-72
2023/08/26 07:39:08;;;;;;;1.50;1.37;;;19.50;99.90;;;;;;5074581;28;20619;-71
2023/08/26 07:41:35;;;;;;;6.03;2.07;;;19.70;99.90;;;;;;5074379;28;20190;-71
2023/08/26 07:44:00;;;;;;;2.37;2.17;;;19.80;99.90;;;;;;5074321;28;20714;-73
2023/08/26 07:46:26;;;;;;;1.97;1.77;;;20.00;99.90;;;;;;5074576;28;20399;-72
2023/08/26 07:48:52;;;;;;;1.77;1.67;;;20.10;99.90;;;;;;5074233;28;20551;-73
2023/08/26 07:51:18;;;;;;;3.67;1.93;;;20.40;99.90;;;;;;5074537;28;20191;-73
2023/08/26 07:53:43;;;;;;;2.70;2.50;;;20.70;99.90;;;;;;5074231;28;20173;-72
2023/08/26 07:56:09;;;;;;;1.90;1.67;;;20.90;99.90;;;;;;5074032;28;20414;-73
2023/08/26 07:58:36;;;;;;;0.90;0.87;;;21.00;99.90;;;;;;5074111;28;20203;-72
2023/08/26 08:01:02;;;;;;;2.03;1.87;;;20.70;99.90;;;;;;5074183;28;20409;-73
2023/08/26 08:03:27;;;;;;;2.97;2.77;;;20.80;99.90;;;;;;5074437;28;20266;-73
2023/08/26 08:05:53;;;;;;;1.60;1.50;;;20.70;99.90;;;;;;5073551;28;20546;-70
2023/08/26 08:08:19;;;;;;;1.83;1.47;;;20.80;99.90;;;;;;5073918;28;20283;-71
2023/08/26 08:10:44;;;;;;;1.47;1.37;;;21.00;99.90;;;;;;5073481;28;20164;-73
2023/08/26 08:13:10;;;;;;;6.83;1.43;;;21.10;99.90;;;;;;5073958;28;20545;-73
2023/08/26 08:15:36;;;;;;;2.50;2.00;;;21.00;99.90;;;;;;5073605;28;20625;-73
2023/08/26 08:18:02;;;;;;;1.77;1.67;;;21.00;99.90;;;;;;5073804;28;20183;-71
2023/08/26 08:20:30;;;;;;;8.90;2.07;;;21.10;99.90;;;;;;5074202;28;20470;-73
2023/08/26 08:22:56;;;;;;;1.53;1.33;;;21.20;99.90;;;;;;5073606;28;20435;-73
2023/08/26 08:25:22;;;;;;;1.27;1.17;;;21.10;99.90;;;;;;5073277;28;20507;-72
2023/08/26 08:27:48;;;;;;;1.80;1.10;;;20.90;99.90;;;;;;5073758;28;20498;-72
2023/08/26 08:30:14;;;;;;;3.30;2.27;;;20.90;99.90;;;;;;5073936;28;20403;-72
2023/08/26 08:32:40;;;;;;;1.60;1.27;;;;;;;;;;5073378;28;20199;-72
2023/08/26 08:35:06;;;;;;;1.53;1.43;;;20.90;99.90;;;;;;5072893;28;20189;-74
2023/08/26 08:37:32;;;;;;;1.67;1.57;;;21.00;99.90;;;;;;5073168;28;20423;-73
2023/08/26 08:39:59;;;;;;;1.70;1.13;;;21.10;99.90;;;;;;5073651;28;20737;-75
2023/08/26 08:42:25;;;;;;;1.67;1.57;;;21.20;99.90;;;;;;5072984;28;20484;-71
2023/08/26 08:44:51;;;;;;;1.30;1.20;;;21.30;99.90;;;;;;5073248;28;20494;-72
2023/08/26 08:47:17;;;;;;;1.70;1.37;;;21.30;99.90;;;;;;5073611;28;20407;-72
2023/08/26 08:49:44;;;;;;;0.53;0.53;;;21.20;99.90;;;;;;5072422;28;20789;-74
2023/08/26 08:52:11;;;;;;;3.13;1.20;;;21.10;99.90;;;;;;5072912;28;20221;-73
2023/08/26 08:54:37;;;;;;;1.80;1.70;;;21.10;99.90;;;;;;5072698;28;20502;-72
2023/08/26 08:57:04;;;;;;;1.70;1.60;;;21.20;99.90;;;;;;5072790;28;20458;-72
2023/08/26 08:59:35;;;;;;;4.43;1.23;;;21.40;99.90;;;;;;5073260;28;20472;-73
2023/08/26 09:02:03;;;;;;;5.10;1.80;;;21.60;99.90;;;;;;5073119;28;20939;-72
2023/08/26 09:04:29;;;;;;;2.40;1.50;;;21.60;99.90;;;;;;5072822;28;20538;-73
2023/08/26 09:06:55;;;;;;;2.13;1.97;;;21.50;99.90;;;;;;5073056;28;20501;-73
2023/08/26 09:09:21;;;;;;;1.93;1.50;;;21.40;99.90;;;;;;5073114;28;20181;-72
2023/08/26 09:11:48;;;;;;;4.63;2.00;;;21.50;99.90;;;;;;5072991;28;20233;-73
2023/08/26 09:14:14;;;;;;;1.60;1.50;;;21.60;99.90;;;;;;5072813;28;20419;-74
2023/08/26 09:16:41;;;;;;;2.63;2.47;;;21.80;99.90;;;;;;5072994;28;20768;-72
2023/08/26 09:19:09;;;;;;;2.07;1.87;;;22.00;99.90;;;;;;5072894;28;20177;-71
2023/08/26 09:21:43;;;;;;;3.07;2.70;;;22.40;99.90;;;;;;5072833;28;20483;-73
2023/08/26 09:24:14;;;;;;;2.60;1.87;;;22.60;99.40;;;;;;5075825;28;20363;-72
2023/08/26 09:26:56;;;;;;;1.30;1.20;;;22.80;99.90;;;;;;5076951;28;20382;-71
2023/08/26 09:29:21;;;;;;;2.33;1.33;;;22.90;99.90;;;;;;5077044;28;20404;-74
2023/08/26 09:31:49;;;;;;;1.70;1.53;;;22.90;98.80;;;;;;5076628;28;20406;-72
2023/08/26 09:34:25;;;;;;;2.60;2.40;;;22.90;99.10;;;;;;5076579;28;20176;-72
2023/08/26 09:36:51;;;;;;;2.23;1.20;;;22.80;99.10;;;;;;5076746;28;20486;-73
2023/08/26 09:39:17;;;;;;;1.63;1.33;;;;;;;;;;5076809;28;20419;-74
2023/08/26 09:41:43;;;;;;;3.07;1.70;;;22.40;99.80;;;;;;5076620;28;20201;-74
2023/08/26 09:44:10;;;;;;;1.60;1.50;;;22.00;99.60;;;;;;5076181;28;20432;-73
2023/08/26 09:46:37;;;;;;;2.37;2.17;;;21.70;99.90;;;;;;5076550;28;20482;-73
2023/08/26 09:49:03;;;;;;;2.83;1.80;;;21.40;99.90;;;;;;5076309;28;20899;-72
2023/08/26 09:51:31;;;;;;;3.33;1.97;;;21.00;99.90;;;;;;5076280;28;20451;-73
2023/08/26 09:53:58;;;;;;;1.17;1.07;;;20.90;99.90;;;;;;5076160;28;20406;-74
2023/08/26 09:56:25;;;;;;;1.40;1.30;;;20.80;99.90;;;;;;5075850;28;20902;-73
2023/08/26 09:58:52;;;;;;;1.50;1.40;;;21.00;99.90;;;;;;5076178;28;20431;-71
2023/08/26 10:01:22;;;;;;;1.60;1.37;;;21.00;99.90;;;;;;5075853;28;20430;-74
2023/08/26 10:04:04;;;;;;;1.27;1.03;;;21.00;99.90;;;;;;5076017;28;20426;-73
2023/08/26 10:06:36;;;;;;;2.63;2.03;;;21.00;99.90;;;;;;5076484;28;20971;-74
2023/08/26 10:09:25;;;;;;;1.50;1.10;;;20.90;99.90;;;;;;5076459;28;20409;-73
2023/08/26 10:11:54;;;;;;;4.57;2.60;;;20.90;99.90;;;;;;5075563;28;20479;-73
2023/08/26 10:14:23;;;;;;;2.03;1.80;;;20.70;99.90;;;;;;5075676;28;20495;-72
2023/08/26 10:16:50;;;;;;;2.43;1.60;;;20.50;99.90;;;;;;5076021;28;20465;-72
2023/08/26 10:19:17;;;;;;;2.00;1.80;;;20.40;99.90;;;;;;5075811;28;20863;-72
2023/08/26 10:21:43;;;;;;;1.77;1.30;;;20.20;99.90;;;;;;5075742;28;20422;-72
2023/08/26 10:24:09;;;;;;;1.00;0.93;;;20.10;99.90;;;;;;5075488;28;20919;-72
2023/08/26 10:26:35;;;;;;;1.77;1.67;;;20.00;99.90;;;;;;5075990;28;20403;-73
2023/08/26 10:29:01;;;;;;;1.50;1.40;;;19.90;99.90;;;;;;5075642;28;20175;-74
2023/08/26 10:31:35;;;;;;;8.70;1.33;;;19.80;99.90;;;;;;5075670;28;20497;-72
2023/08/26 10:34:15;;;;;;;4.07;1.43;;;19.70;99.90;;;;;;5075197;28;20175;-74
2023/08/26 10:36:45;;;;;;;1.50;1.40;;;19.50;99.90;;;;;;5075639;28;20392;-72
2023/08/26 10:39:18;;;;;;;1.20;1.10;;;19.40;99.90;;;;;;5075782;28;20400;-71
2023/08/26 10:42:12;;;;;;;0.97;0.87;;;19.30;99.90;;;;;;5075179;28;20427;-72
2023/08/26 10:44:39;;;;;;;1.43;1.33;;;18.90;99.90;;;;;;5074872;28;20443;-73
2023/08/26 10:47:05;;;;;;;1.43;1.33;;;18.80;99.90;;;;;;5075397;28;20399;-72
2023/08/26 10:49:31;;;;;;;1.10;1.10;;;18.90;99.90;;;;;;5074762;28;20427;-74
2023/08/26 10:52:09;;;;;;;1.80;1.20;;;19.10;99.90;;;;;;5075381;28;20189;-64
2023/08/26 10:54:36;;;;;;;1.03;0.70;;;19.20;99.90;;;;;;5075206;28;20427;-65
2023/08/26 10:57:08;;;;;;;1.23;1.03;;;19.30;99.90;;;;;;5075866;28;20404;-65
2023/08/26 10:59:37;;;;;;;1.00;0.90;;;19.30;99.90;;;;;;5075359;28;20491;-66
2023/08/26 11:02:09;;;;;;;1.03;0.93;;;19.30;99.90;;;;;;5075115;28;20435;-65
2023/08/26 11:04:44;;;;;;;2.57;2.37;;;19.30;99.90;;;;;;5075408;28;20508;-71
2023/08/26 11:07:17;;;;;;;1.23;1.13;;;19.30;99.90;;;;;;5074342;28;20391;-71
2023/08/26 11:09:43;;;;;;;1.33;0.77;;;19.30;99.90;;;;;;5075226;28;20427;-72
2023/08/26 11:12:26;;;;;;;0.80;0.80;;;19.40;99.90;;;;;;5075087;28;21026;-72
2023/08/26 11:14:53;;;;;;;1.13;0.83;;;19.40;99.90;;;;;;5074695;28;20407;-72
2023/08/26 11:17:19;;;;;;;1.90;1.70;;;19.30;99.90;;;;;;5074843;28;20432;-71
2023/08/26 11:19:45;;;;;;;1.30;1.20;;;19.20;99.90;;;;;;5074736;28;20438;-71
2023/08/26 11:22:11;;;;;;;1.00;0.80;;;19.10;99.90;;;;;;5074738;28;20204;-71
2023/08/26 11:24:37;;;;;;;1.13;1.00;;;19.00;99.90;;;;;;5074384;28;20247;-71
2023/08/26 11:27:03;;;;;;;1.87;1.77;;;19.00;99.90;;;;;;5074942;28;20399;-73
2023/08/26 11:29:29;;;;;;;1.10;1.10;;;19.00;99.90;;;;;;5075033;28;20211;-74
2023/08/26 11:31:56;;;;;;;0.83;0.80;;;19.00;99.90;;;;;;5074473;28;20484;-71
2023/08/26 11:34:25;;;;;;;8.70;1.70;;;19.00;99.90;;;;;;5074258;28;20407;-73
2023/08/26 11:36:53;;;;;;;1.90;1.00;;;18.80;99.90;;;;;;5074542;28;20407;-70
2023/08/26 11:39:18;;;;;;;1.47;1.37;;;18.70;99.90;;;;;;5074595;28;20745;-71
2023/08/26 11:41:45;;;;;;;0.80;0.80;;;18.60;99.90;;;;;;5074731;28;20428;-73
2023/08/26 11:44:15;;;;;;;1.10;1.00;;;18.60;99.90;;;;;;5074304;28;20164;-71
2023/08/26 11:46:42;;;;;;;1.20;1.20;;;18.50;99.90;;;;;;5074022;28;20395;-71
2023/08/26 11:49:11;;;;;;;0.70;0.70;;;18.50;99.90;;;;;;5073749;28;20687;-71
2023/08/26 11:51:40;;;;;;;3.13;1.40;;;18.60;99.90;;;;;;5056052;28;21004;-73
2023/08/26 11:54:21;;;;;;;0.73;0.73;;;18.70;99.90;;;;;;5074262;28;20419;-72
2023/08/26 11:56:47;;;;;;;0.60;0.60;;;18.70;99.90;;;;;;5073258;28;20451;-73
2023/08/26 11:59:22;;;;;;;4.13;2.10;;;18.70;99.90;;;;;;5073585;28;21021;-70
2023/08/26 12:01:48;;;;;;;1.20;0.67;;;18.50;99.90;;;;;;5074111;28;20250;-71
2023/08/26 12:04:19;;;;;;;1.00;1.00;;;18.50;99.90;;;;;;5073793;28;20841;-71
2023/08/26 12:06:45;;;;;;;0.97;0.97;;;18.50;99.90;;;;;;5073908;28;20407;-73
2023/08/26 12:09:12;;;;;;;1.60;1.10;;;18.50;99.90;;;;;;5074082;28;20826;-71
2023/08/26 12:11:39;;;;;;;1.90;1.77;;;18.40;99.90;;;;;;5074176;28;20431;-72
2023/08/26 12:14:21;;;;;;;1.53;0.63;;;18.40;99.90;;;;;;5073888;28;20425;-72
2023/08/26 12:16:47;;;;;;;2.30;1.07;;;18.40;99.90;;;;;;5073975;28;20403;-71
2023/08/26 12:19:17;;;;;;;0.80;0.80;;;18.40;99.90;;;;;;5073705;28;20804;-71
2023/08/26 12:21:47;;;;;;;0.50;0.50;;;18.30;99.90;;;;;;5073765;28;20434;-72
2023/08/26 12:24:12;;;;;;;20.27;1.03;;;18.20;99.90;;;;;;5073986;28;20404;-72
2023/08/26 12:26:38;;;;;;;0.80;0.67;;;18.10;99.90;;;;;;5073625;28;20397;-72
2023/08/26 12:29:04;;;;;;;1.67;1.17;;;18.40;99.90;;;;;;5073687;28;20194;-71
2023/08/26 12:31:34;;;;;;;4.90;1.23;;;18.30;99.90;;;;;;5072553;28;20508;-70
2023/08/26 12:34:02;;;;;;;0.87;0.87;;;18.40;99.90;;;;;;5073722;28;20191;-70
2023/08/26 12:36:29;;;;;;;1.27;1.07;;;18.50;99.90;;;;;;5073605;28;20456;-73
2023/08/26 12:38:55;;;;;;;0.87;0.87;;;18.50;99.90;;;;;;5073941;28;20411;-72
2023/08/26 12:41:23;;;;;;;0.80;0.80;;;18.60;99.90;;;;;;5071463;28;20508;-72
2023/08/26 12:43:50;;;;;;;1.27;1.17;;;18.50;99.90;;;;;;5073503;28;21013;-72
2023/08/26 12:46:16;;;;;;;0.67;0.67;;;18.40;99.90;;;;;;5071737;28;21002;-70
2023/08/26 12:48:42;;;;;;;0.50;0.50;;;18.50;99.90;;;;;;5073389;28;20562;-70
2023/08/26 12:51:08;;;;;;;0.80;0.80;;;18.70;99.90;;;;;;5072072;28;20567;-72
2023/08/26 12:53:34;;;;;;;3.93;0.70;;;18.60;99.90;;;;;;5073249;28;20405;-71
2023/08/26 12:56:01;;;;;;;4.93;1.63;;;18.60;99.90;;;;;;5073163;28;20398;-71